Time;durP1;ratioP1;P1;durP2;ratioP2;P2;SDS_P1;SDS_P2;PMS_P1;PMS_P2;Temp;Humidity;BMP_temperature;BMP_pressure;BME280_temperature;BME280_humidity;BME280_pressure;Samples;Min_cycle;Max_cycle;Signal;HPM_P1;HPM_P2
2023/03/28 00:01:31;;;;;;;5.67;2.30;;;25.30;99.90;;;;;;5092899;28;20541;-70
2023/03/28 00:04:00;;;;;;;10.37;2.20;;;25.20;99.90;;;;;;5092796;28;20202;-70
2023/03/28 00:06:28;;;;;;;6.20;2.30;;;25.20;99.90;;;;;;5093378;28;20549;-70
2023/03/28 00:08:56;;;;;;;12.60;2.60;;;25.20;99.90;;;;;;5092907;28;20626;-70
2023/03/28 00:11:24;;;;;;;10.20;2.70;;;25.40;99.90;;;;;;5092655;28;20253;-70
2023/03/28 00:14:02;;;;;;;8.97;2.80;;;25.50;99.90;;;;;;5092774;28;20179;-71
2023/03/28 00:16:36;;;;;;;14.43;2.70;;;25.60;99.90;;;;;;5093380;28;20170;-71
2023/03/28 00:19:10;;;;;;;5.83;2.77;;;25.50;99.90;;;;;;5095725;28;20175;-70
2023/03/28 00:21:41;;;;;;;10.90;2.60;;;25.60;99.90;;;;;;5095871;28;20764;-71
2023/03/28 00:24:12;;;;;;;9.67;3.13;;;25.70;99.90;;;;;;5095429;28;20184;-71
2023/03/28 00:26:41;;;;;;;10.47;2.77;;;25.70;99.90;;;;;;5096877;28;20179;-71
2023/03/28 00:29:14;;;;;;;13.77;2.90;;;25.80;99.90;;;;;;5096903;28;20257;-71
2023/03/28 00:31:42;;;;;;;8.17;2.80;;;25.80;99.90;;;;;;5096833;28;20206;-71
2023/03/28 00:34:10;;;;;;;9.87;2.70;;;25.90;99.90;;;;;;5096652;28;20209;-71
2023/03/28 00:36:38;;;;;;;18.00;2.83;;;26.00;99.90;;;;;;5096828;28;20182;-70
2023/03/28 00:39:09;;;;;;;6.90;1.93;;;26.00;99.90;;;;;;5096925;28;20182;-71
2023/03/28 00:41:40;;;;;;;15.43;2.33;;;26.10;99.90;;;;;;5096973;28;20171;-71
2023/03/28 00:44:38;;;;;;;4.90;1.90;;;26.10;99.90;;;;;;5096682;28;20172;-71
2023/03/28 00:47:26;;;;;;;7.27;1.60;;;26.00;99.90;;;;;;5096800;28;20228;-70
2023/03/28 00:50:13;;;;;;;9.60;1.90;;;26.00;99.90;;;;;;5064700;28;20270;-71
2023/03/28 00:52:52;;;;;;;3.73;1.60;;;26.00;99.90;;;;;;5096627;28;20188;-71
2023/03/28 00:55:34;;;;;;;9.73;2.00;;;25.80;99.90;;;;;;5096951;28;20167;-72
2023/03/28 00:58:07;;;;;;;6.67;1.70;;;25.80;99.90;;;;;;5096507;28;20175;-71
2023/03/28 01:00:35;;;;;;;5.77;2.50;;;25.60;99.90;;;;;;5096481;28;20179;-71
2023/03/28 01:03:05;;;;;;;6.53;2.20;;;25.50;99.90;;;;;;5096359;28;20646;-72
2023/03/28 01:05:35;;;;;;;5.17;2.37;;;25.50;99.90;;;;;;5096384;28;20186;-71
2023/03/28 01:08:08;;;;;;;4.77;1.93;;;25.40;99.90;;;;;;5096441;28;20203;-71
2023/03/28 01:10:36;;;;;;;11.40;2.53;;;25.30;99.90;;;;;;5096022;28;20354;-71
2023/03/28 01:13:05;;;;;;;10.67;2.93;;;25.20;99.90;;;;;;5096330;28;20186;-71
2023/03/28 01:15:32;;;;;;;7.60;2.87;;;25.20;99.90;;;;;;5096197;28;20215;-70
2023/03/28 01:18:02;;;;;;;10.33;3.17;;;25.00;99.90;;;;;;5096207;28;20622;-71
2023/03/28 01:20:45;;;;;;;8.67;2.33;;;25.00;99.90;;;;;;5096119;28;20183;-71
2023/03/28 01:23:42;;;;;;;13.43;2.70;;;25.00;99.90;;;;;;5096282;28;20540;-71
2023/03/28 01:26:39;;;;;;;16.03;2.93;;;24.80;99.90;;;;;;5094954;28;20176;-71
2023/03/28 01:29:43;;;;;;;5.70;2.53;;;24.80;99.90;;;;;;5095213;28;20163;-70
2023/03/28 01:32:35;;;;;;;8.03;3.13;;;24.80;99.90;;;;;;5095987;28;20225;-71
2023/03/28 01:35:32;;;;;;;8.30;2.80;;;25.00;99.90;;;;;;5095868;28;20175;-71
2023/03/28 01:38:29;;;;;;;7.23;2.77;;;25.00;99.90;;;;;;5095888;28;20171;-70
2023/03/28 01:41:08;;;;;;;6.43;2.47;;;25.10;99.90;;;;;;5072413;28;20202;-70
2023/03/28 01:44:05;;;;;;;6.27;3.00;;;25.10;99.90;;;;;;5095713;28;20581;-70
2023/03/28 01:47:25;;;;;;;5.50;2.40;;;25.00;99.90;;;;;;5095707;28;20175;-72
2023/03/28 01:50:19;;;;;;;7.00;1.97;;;24.90;99.90;;;;;;5082247;28;20554;-71
2023/03/28 01:52:52;;;;;;;11.33;2.60;;;24.60;99.90;;;;;;5095745;28;20646;-70
2023/03/28 01:55:50;;;;;;;7.73;3.10;;;24.50;99.90;;;;;;5095443;28;20178;-71
2023/03/28 01:58:28;;;;;;;4.33;2.67;;;24.50;99.90;;;;;;5095498;28;20186;-71
2023/03/28 02:01:25;;;;;;;6.93;2.50;;;24.40;99.90;;;;;;5095485;28;20171;-70
2023/03/28 02:03:57;;;;;;;6.57;2.40;;;24.30;99.90;;;;;;5090190;28;20193;-70
2023/03/28 02:06:29;;;;;;;7.40;2.47;;;24.30;99.90;;;;;;5095258;28;20678;-71
2023/03/28 02:08:58;;;;;;;7.60;2.60;;;24.20;99.90;;;;;;5095420;28;20523;-70
2023/03/28 02:11:28;;;;;;;9.03;2.60;;;24.20;99.90;;;;;;5094873;28;20276;-72
2023/03/28 02:14:04;;;;;;;9.77;2.90;;;24.20;99.90;;;;;;5095099;28;20278;-69
2023/03/28 02:16:35;;;;;;;9.90;2.33;;;24.10;99.90;;;;;;5095506;28;20174;-71
2023/03/28 02:19:05;;;;;;;7.80;2.77;;;24.10;99.90;;;;;;5094713;28;20178;-71
2023/03/28 02:21:42;;;;;;;11.23;2.80;;;24.10;99.90;;;;;;5094849;28;20183;-71
2023/03/28 02:24:12;;;;;;;5.97;2.37;;;24.00;99.90;;;;;;5094614;28;20637;-70
2023/03/28 02:26:40;;;;;;;6.50;2.63;;;23.90;99.90;;;;;;5094667;28;20193;-70
2023/03/28 02:29:09;;;;;;;6.73;2.40;;;23.80;99.90;;;;;;5094632;28;20178;-71
2023/03/28 02:31:37;;;;;;;8.30;3.07;;;23.80;99.90;;;;;;5094591;28;20218;-71
2023/03/28 02:34:04;;;;;;;7.47;2.20;;;23.80;99.90;;;;;;5094845;28;20232;-71
2023/03/28 02:36:32;;;;;;;8.70;2.57;;;23.70;99.90;;;;;;5094410;28;20638;-71
2023/03/28 02:39:17;;;;;;;6.93;2.47;;;23.70;99.90;;;;;;5094791;28;20179;-70
2023/03/28 02:42:19;;;;;;;8.53;2.23;;;23.80;99.90;;;;;;5093846;28;20179;-70
2023/03/28 02:45:04;;;;;;;5.50;2.53;;;23.60;99.90;;;;;;5094245;28;20694;-71
2023/03/28 02:47:55;;;;;;;3.40;2.50;;;23.60;99.90;;;;;;5094384;28;20238;-70
2023/03/28 02:50:41;;;;;;;7.93;2.33;;;23.60;99.90;;;;;;5094305;28;20175;-70
2023/03/28 02:53:26;;;;;;;7.60;2.67;;;23.60;99.90;;;;;;5094621;28;20179;-70
2023/03/28 02:56:28;;;;;;;6.30;2.50;;;23.40;99.90;;;;;;5094325;28;20170;-71
2023/03/28 02:59:24;;;;;;;6.57;2.90;;;23.30;99.90;;;;;;5081101;28;20653;-70
2023/03/28 03:01:52;;;;;;;5.17;2.20;;;23.10;99.90;;;;;;5093941;28;20244;-70
2023/03/28 03:04:19;;;;;;;5.47;2.00;;;23.00;99.90;;;;;;5093880;28;20170;-70
2023/03/28 03:06:47;;;;;;;6.63;2.20;;;22.80;99.90;;;;;;5094214;28;20531;-71
2023/03/28 03:09:17;;;;;;;6.13;2.60;;;22.80;99.90;;;;;;5093794;28;20229;-70
2023/03/28 03:11:44;;;;;;;21.03;2.77;;;22.70;99.90;;;;;;5093600;28;20265;-70
2023/03/28 03:14:12;;;;;;;10.30;3.13;;;22.60;99.90;;;;;;5093735;28;20166;-69
2023/03/28 03:16:41;;;;;;;11.17;3.67;;;22.60;99.90;;;;;;5093696;28;20175;-70
2023/03/28 03:19:09;;;;;;;9.47;3.27;;;22.50;99.90;;;;;;5093449;28;20190;-69
2023/03/28 03:21:36;;;;;;;6.80;3.30;;;22.40;99.90;;;;;;5093721;28;20692;-70
2023/03/28 03:24:04;;;;;;;12.30;3.03;;;22.40;99.90;;;;;;5093311;28;20205;-70
2023/03/28 03:26:32;;;;;;;11.10;3.80;;;22.40;99.90;;;;;;5093481;28;20178;-70
2023/03/28 03:29:00;;;;;;;9.03;3.97;;;22.40;99.90;;;;;;5093341;28;20260;-70
2023/03/28 03:31:28;;;;;;;7.53;3.50;;;22.40;99.90;;;;;;5092858;28;20272;-68
2023/03/28 03:33:55;;;;;;;7.63;3.30;;;22.40;99.90;;;;;;5100878;28;20276;-68
2023/03/28 03:36:22;;;;;;;13.53;3.33;;;22.40;99.90;;;;;;5112189;28;20269;-68
2023/03/28 03:38:51;;;;;;;9.83;2.40;;;22.40;99.90;;;;;;5104334;28;20187;-69
2023/03/28 03:41:18;;;;;;;12.93;3.40;;;22.40;99.90;;;;;;5089428;28;20226;-71
2023/03/28 03:43:45;;;;;;;8.47;2.97;;;22.30;99.90;;;;;;5097697;28;20189;-69
2023/03/28 03:46:13;;;;;;;7.17;2.87;;;22.30;99.90;;;;;;5111922;28;20229;-68
2023/03/28 03:48:40;;;;;;;9.27;2.70;;;22.20;99.90;;;;;;5102715;28;20183;-69
2023/03/28 03:51:08;;;;;;;13.33;2.90;;;22.10;99.90;;;;;;5095422;28;20321;-69
2023/03/28 03:53:35;;;;;;;9.23;2.57;;;22.00;99.90;;;;;;5106508;28;20192;-69
2023/03/28 03:56:05;;;;;;;5.80;2.60;;;22.00;99.90;;;;;;5099719;28;20226;-68
2023/03/28 03:58:32;;;;;;;10.83;2.60;;;22.00;99.90;;;;;;5100714;28;20566;-69
2023/03/28 04:01:00;;;;;;;6.87;2.70;;;22.10;99.90;;;;;;5093756;28;20236;-69
2023/03/28 04:03:28;;;;;;;9.47;2.57;;;22.00;99.90;;;;;;5098434;28;20197;-68
2023/03/28 04:05:56;;;;;;;12.00;2.40;;;21.90;99.90;;;;;;5101683;28;20226;-68
2023/03/28 04:08:24;;;;;;;11.00;2.47;;;21.80;99.90;;;;;;5107239;28;20204;-70
2023/03/28 04:10:52;;;;;;;9.10;2.40;;;21.70;99.90;;;;;;5096312;28;20722;-69
2023/03/28 04:13:24;;;;;;;7.10;2.57;;;21.70;99.90;;;;;;5092979;28;20269;-68
2023/03/28 04:15:51;;;;;;;10.13;2.50;;;21.60;99.90;;;;;;5087928;28;20269;-68
2023/03/28 04:18:19;;;;;;;4.63;2.13;;;21.50;99.90;;;;;;5093026;28;20186;-68
2023/03/28 04:20:53;;;;;;;3.93;2.00;;;21.40;99.90;;;;;;5094788;28;20187;-69
2023/03/28 04:23:24;;;;;;;4.73;2.50;;;21.30;99.90;;;;;;5095825;28;20174;-68
2023/03/28 04:26:01;;;;;;;5.33;2.20;;;21.30;99.90;;;;;;5104574;28;20187;-69
2023/03/28 04:28:28;;;;;;;5.90;2.63;;;21.30;99.90;;;;;;5091193;28;20503;-69
2023/03/28 04:30:59;;;;;;;7.60;2.60;;;21.20;99.90;;;;;;5091028;28;20223;-68
2023/03/28 04:33:29;;;;;;;5.43;2.87;;;21.10;99.90;;;;;;5100037;28;20253;-68
2023/03/28 04:36:01;;;;;;;9.80;3.20;;;21.10;99.90;;;;;;5097482;28;20187;-68
2023/03/28 04:38:36;;;;;;;5.27;2.70;;;21.00;99.90;;;;;;5108130;28;20952;-69
2023/03/28 04:41:04;;;;;;;10.77;2.80;;;21.00;99.90;;;;;;5091007;28;20171;-68
2023/03/28 04:43:31;;;;;;;4.50;2.40;;;21.00;99.90;;;;;;5090911;28;20175;-68
2023/03/28 04:45:59;;;;;;;13.80;3.23;;;20.90;99.90;;;;;;5091113;28;20618;-68
2023/03/28 04:48:27;;;;;;;13.53;3.43;;;20.80;99.90;;;;;;5090658;28;20189;-69
2023/03/28 04:50:55;;;;;;;5.83;3.43;;;20.80;99.90;;;;;;5104665;28;20220;-69
2023/03/28 04:53:22;;;;;;;5.70;3.17;;;20.80;99.90;;;;;;5095064;28;20183;-69
2023/03/28 04:55:50;;;;;;;10.23;2.73;;;20.80;99.90;;;;;;5099111;28;20187;-69
2023/03/28 04:58:20;;;;;;;6.37;3.07;;;20.70;99.90;;;;;;5111568;28;20175;-70
2023/03/28 05:00:48;;;;;;;11.37;3.80;;;20.70;99.90;;;;;;5106929;28;20522;-70
2023/03/28 05:03:20;;;;;;;8.13;2.90;;;20.70;99.90;;;;;;5090306;28;20187;-70
2023/03/28 05:05:50;;;;;;;10.07;3.53;;;20.70;99.90;;;;;;5100881;28;20197;-69
2023/03/28 05:08:19;;;;;;;7.60;3.77;;;20.70;99.90;;;;;;5114579;28;20174;-69
2023/03/28 05:10:47;;;;;;;10.27;4.70;;;20.70;99.90;;;;;;5114444;28;20258;-69
2023/03/28 05:13:16;;;;;;;8.07;4.10;;;20.90;99.90;;;;;;5099497;28;20192;-69
2023/03/28 05:15:45;;;;;;;12.50;3.53;;;21.00;99.90;;;;;;5113547;28;20192;-69
2023/03/28 05:18:12;;;;;;;7.87;3.40;;;21.10;99.90;;;;;;5114805;28;20184;-69
2023/03/28 05:20:40;;;;;;;7.77;3.77;;;21.20;99.90;;;;;;5115078;28;20633;-69
2023/03/28 05:23:08;;;;;;;7.30;3.70;;;21.20;99.90;;;;;;5113535;28;20430;-70
2023/03/28 05:25:36;;;;;;;13.27;4.07;;;21.10;99.90;;;;;;5094622;28;20653;-69
2023/03/28 05:28:04;;;;;;;10.40;3.80;;;21.10;99.90;;;;;;5094518;28;20634;-69
2023/03/28 05:30:31;;;;;;;5.97;2.60;;;21.20;99.90;;;;;;5094535;28;20564;-69
2023/03/28 05:32:59;;;;;;;5.83;2.20;;;21.30;99.90;;;;;;5093961;28;20187;-69
2023/03/28 05:35:27;;;;;;;3.60;2.23;;;21.30;99.90;;;;;;5094111;28;20225;-69
2023/03/28 05:37:54;;;;;;;12.50;3.33;;;21.40;99.90;;;;;;5104306;28;20235;-69
2023/03/28 05:40:22;;;;;;;7.33;2.30;;;21.50;99.90;;;;;;5109736;28;20175;-69
2023/03/28 05:42:50;;;;;;;7.90;2.30;;;21.50;99.90;;;;;;5093835;28;20194;-69
2023/03/28 05:45:17;;;;;;;11.20;3.43;;;21.70;99.90;;;;;;5098727;28;20210;-68
2023/03/28 05:47:45;;;;;;;8.13;2.87;;;21.80;99.90;;;;;;5097878;28;20210;-70
2023/03/28 05:50:12;;;;;;;8.27;3.80;;;21.80;99.90;;;;;;5094148;28;20227;-70
2023/03/28 05:52:39;;;;;;;6.30;3.53;;;21.70;99.90;;;;;;5093459;28;20226;-70
2023/03/28 05:55:07;;;;;;;7.80;2.97;;;21.60;99.90;;;;;;5093590;28;20179;-69
2023/03/28 05:57:35;;;;;;;6.10;3.10;;;21.70;99.90;;;;;;5103517;28;20194;-69
2023/03/28 06:00:12;;;;;;;5.87;3.00;;;21.60;99.90;;;;;;5108825;28;20186;-68
2023/03/28 06:02:41;;;;;;;5.47;2.60;;;21.50;99.90;;;;;;5099767;28;20240;-69
2023/03/28 06:05:11;;;;;;;4.83;2.10;;;21.50;99.90;;;;;;5093690;28;20231;-68
2023/03/28 06:07:38;;;;;;;4.67;2.20;;;21.40;99.90;;;;;;5094060;28;20247;-68
2023/03/28 06:10:07;;;;;;;4.83;2.80;;;21.30;99.90;;;;;;5093391;28;20313;-68
2023/03/28 06:12:34;;;;;;;8.63;2.53;;;21.10;99.90;;;;;;5093353;28;20226;-68
2023/03/28 06:15:02;;;;;;;6.27;2.93;;;21.10;99.90;;;;;;5093219;28;20187;-68
2023/03/28 06:17:30;;;;;;;9.23;3.10;;;21.10;99.90;;;;;;5092715;28;20263;-69
2023/03/28 06:19:57;;;;;;;10.00;3.53;;;21.00;99.90;;;;;;5093499;28;20231;-69
2023/03/28 06:22:25;;;;;;;9.97;3.13;;;21.00;99.90;;;;;;5092195;28;20197;-69
2023/03/28 06:24:53;;;;;;;5.33;2.90;;;21.00;99.90;;;;;;5109371;28;20182;-69
2023/03/28 06:27:21;;;;;;;3.73;2.47;;;21.00;99.90;;;;;;5110619;28;20175;-69
2023/03/28 06:29:48;;;;;;;4.90;2.90;;;21.00;99.90;;;;;;5098832;28;20218;-69
2023/03/28 06:32:17;;;;;;;7.07;3.03;;;21.00;99.90;;;;;;5109411;28;20219;-68
2023/03/28 06:34:44;;;;;;;8.27;3.60;;;21.00;99.90;;;;;;5104206;28;20195;-69
2023/03/28 06:37:12;;;;;;;7.97;2.70;;;21.00;99.90;;;;;;5113662;28;20177;-69
2023/03/28 06:39:39;;;;;;;6.13;3.10;;;21.00;99.90;;;;;;5110069;28;20178;-68
2023/03/28 06:42:06;;;;;;;8.13;2.63;;;21.00;99.90;;;;;;5113536;28;20307;-70
2023/03/28 06:44:37;;;;;;;6.77;3.03;;;21.00;99.90;;;;;;5113426;28;20173;-70
2023/03/28 06:47:04;;;;;;;5.57;2.23;;;20.90;99.90;;;;;;5113103;28;20235;-70
2023/03/28 06:49:41;;;;;;;7.90;2.40;;;20.90;99.90;;;;;;5113428;28;20508;-69
2023/03/28 06:52:09;;;;;;;5.43;2.10;;;20.90;99.90;;;;;;5113409;27;20220;-70
2023/03/28 06:54:39;;;;;;;4.07;2.30;;;20.90;99.90;;;;;;5112931;28;20538;-69
2023/03/28 06:57:07;;;;;;;4.93;2.17;;;20.90;99.90;;;;;;5113287;28;20174;-69
2023/03/28 06:59:34;;;;;;;4.23;2.37;;;20.90;99.90;;;;;;5113191;28;20196;-71
2023/03/28 07:02:01;;;;;;;6.17;2.23;;;20.90;99.90;;;;;;5112909;28;20180;-69
2023/03/28 07:04:33;;;;;;;2.67;1.70;;;20.90;99.90;;;;;;5111390;28;20674;-69
2023/03/28 07:07:07;;;;;;;6.37;2.57;;;20.90;99.90;;;;;;5111865;28;20186;-70
2023/03/28 07:09:38;;;;;;;6.30;2.23;;;20.90;99.90;;;;;;5111372;28;20648;-69
2023/03/28 07:12:06;;;;;;;4.07;1.97;;;20.90;99.90;;;;;;5112838;28;20659;-70
2023/03/28 07:14:39;;;;;;;4.87;1.73;;;20.90;99.90;;;;;;5112505;28;20178;-70
2023/03/28 07:17:06;;;;;;;3.37;1.90;;;20.90;99.90;;;;;;5094884;28;20180;-69
2023/03/28 07:19:34;;;;;;;3.40;2.17;;;20.90;99.90;;;;;;5113836;28;20191;-69
2023/03/28 07:22:01;;;;;;;3.80;2.00;;;20.90;99.90;;;;;;5113940;28;20178;-68
2023/03/28 07:24:28;;;;;;;5.43;1.97;;;20.80;99.90;;;;;;5113808;28;20179;-70
2023/03/28 07:26:56;;;;;;;5.27;2.10;;;20.80;99.90;;;;;;5113271;28;20183;-69
2023/03/28 07:29:23;;;;;;;3.43;2.23;;;20.80;99.90;;;;;;5113629;28;20183;-69
2023/03/28 07:31:51;;;;;;;4.80;2.73;;;20.80;99.90;;;;;;5112410;28;20512;-68
2023/03/28 07:34:19;;;;;;;7.47;2.37;;;20.80;99.90;;;;;;5113598;28;20182;-68
2023/03/28 07:36:46;;;;;;;3.43;1.90;;;20.80;99.90;;;;;;5113618;28;20175;-68
2023/03/28 07:39:13;;;;;;;5.30;1.77;;;20.80;99.90;;;;;;5113515;28;20190;-68
2023/03/28 07:41:41;;;;;;;4.00;1.93;;;20.80;99.90;;;;;;5113683;28;20186;-68
2023/03/28 07:44:08;;;;;;;5.40;1.70;;;20.70;99.90;;;;;;5113551;28;20184;-68
2023/03/28 07:46:39;;;;;;;3.00;1.97;;;20.70;99.90;;;;;;5113635;28;20227;-68
2023/03/28 07:49:07;;;;;;;3.50;1.60;;;20.70;99.90;;;;;;5113676;28;20524;-69
2023/03/28 07:51:34;;;;;;;2.70;2.03;;;20.70;99.90;;;;;;5113828;28;20221;-68
2023/03/28 07:54:03;;;;;;;4.70;2.20;;;20.70;99.90;;;;;;5113581;28;20253;-68
2023/03/28 07:56:31;;;;;;;4.17;1.77;;;20.60;99.90;;;;;;5113413;28;20185;-70
2023/03/28 07:59:00;;;;;;;3.70;1.40;;;20.60;99.90;;;;;;5116763;28;20182;-70
2023/03/28 08:01:28;;;;;;;7.70;1.90;;;20.60;99.90;;;;;;5115925;28;20184;-68
2023/03/28 08:03:55;;;;;;;4.10;1.70;;;20.60;99.90;;;;;;5113650;28;20553;-69
2023/03/28 08:06:24;;;;;;;5.27;1.83;;;20.60;99.90;;;;;;5112808;28;20179;-69
2023/03/28 08:08:51;;;;;;;4.23;1.70;;;20.50;99.90;;;;;;5115950;28;20165;-69
2023/03/28 08:11:20;;;;;;;3.90;1.50;;;20.50;99.90;;;;;;5111943;28;20728;-68
2023/03/28 08:13:47;;;;;;;2.33;1.63;;;20.50;99.90;;;;;;5113575;28;20558;-68
2023/03/28 08:16:14;;;;;;;5.53;1.70;;;20.50;99.90;;;;;;5113252;28;20170;-69
2023/03/28 08:18:42;;;;;;;3.47;1.73;;;20.60;99.90;;;;;;5113564;28;20172;-69
2023/03/28 08:21:09;;;;;;;6.37;1.90;;;20.60;99.90;;;;;;5110080;28;20176;-69
2023/03/28 08:23:37;;;;;;;2.00;1.53;;;20.60;99.90;;;;;;5092875;28;20181;-69
2023/03/28 08:26:06;;;;;;;4.37;1.93;;;20.60;99.90;;;;;;5093093;28;20175;-69
2023/03/28 08:28:35;;;;;;;5.47;2.10;;;20.60;99.90;;;;;;5092824;28;20171;-69
2023/03/28 08:31:08;;;;;;;6.17;2.10;;;20.60;99.90;;;;;;5092838;28;20309;-69
2023/03/28 08:33:36;;;;;;;3.63;1.87;;;20.60;99.90;;;;;;5091505;28;20178;-70
2023/03/28 08:36:04;;;;;;;2.40;1.70;;;20.50;99.90;;;;;;5092819;28;20202;-70
2023/03/28 08:38:32;;;;;;;3.60;1.73;;;20.50;99.90;;;;;;5094730;28;20172;-69
2023/03/28 08:41:39;;;;;;;3.70;1.70;;;20.50;99.90;;;;;;5096766;28;20177;-68
2023/03/28 08:44:48;;;;;;;5.13;1.40;;;20.50;99.90;;;;;;5078898;28;20296;-68
2023/03/28 08:47:31;;;;;;;5.80;1.60;;;20.50;99.90;;;;;;5095863;28;20183;-69
2023/03/28 08:50:04;;;;;;;3.87;1.97;;;20.40;99.90;;;;;;5095942;28;20269;-68
2023/03/28 08:52:32;;;;;;;7.73;1.80;;;20.40;99.90;;;;;;5095805;28;20238;-69
2023/03/28 08:55:40;;;;;;;2.87;1.70;;;20.50;99.90;;;;;;5096015;28;20177;-70
2023/03/28 08:58:19;;;;;;;2.97;1.80;;;20.50;99.90;;;;;;5095717;28;20171;-70
2023/03/28 09:00:52;;;;;;;6.17;1.77;;;20.50;99.90;;;;;;5095688;28;20174;-69
2023/03/28 09:03:22;;;;;;;3.17;1.97;;;20.50;99.90;;;;;;5096007;28;20175;-69
2023/03/28 09:06:19;;;;;;;4.27;2.10;;;20.40;99.90;;;;;;5096283;28;20175;-68
2023/03/28 09:09:31;;;;;;;3.93;1.50;;;20.40;99.90;;;;;;5095685;28;20236;-69
2023/03/28 09:12:06;;;;;;;2.83;1.90;;;20.40;99.90;;;;;;5091260;28;20325;-68
2023/03/28 09:15:00;;;;;;;1.93;1.53;;;20.50;99.90;;;;;;5095565;28;20254;-70
2023/03/28 09:17:59;;;;;;;4.17;2.00;;;20.40;99.90;;;;;;5094381;28;20175;-69
2023/03/28 09:20:45;;;;;;;3.07;1.67;;;20.40;99.90;;;;;;5087528;28;20216;-69
2023/03/28 09:23:25;;;;;;;4.33;2.10;;;20.40;99.90;;;;;;5095359;28;20169;-68
2023/03/28 09:26:07;;;;;;;7.17;2.97;;;20.40;99.90;;;;;;5095342;28;20518;-70
2023/03/28 09:28:52;;;;;;;3.37;2.00;;;20.40;99.90;;;;;;5095481;28;20193;-69
2023/03/28 09:31:26;;;;;;;2.83;1.70;;;20.40;99.90;;;;;;5095441;28;20208;-69
2023/03/28 09:33:57;;;;;;;4.53;2.57;;;20.40;99.90;;;;;;5093784;28;20207;-69
2023/03/28 09:36:29;;;;;;;5.97;2.13;;;20.30;99.90;;;;;;5094087;28;20175;-67
2023/03/28 09:39:28;;;;;;;7.30;2.33;;;20.40;99.90;;;;;;5095230;28;20505;-69
2023/03/28 09:42:31;;;;;;;4.03;2.60;;;20.30;99.90;;;;;;5085579;28;20187;-68
2023/03/28 09:45:17;;;;;;;3.53;2.10;;;20.30;99.90;;;;;;5078969;28;20194;-69
2023/03/28 09:47:46;;;;;;;3.53;2.10;;;20.30;99.90;;;;;;5094863;28;20183;-69
2023/03/28 09:50:18;;;;;;;3.90;2.57;;;20.30;99.90;;;;;;5094140;28;20186;-70
2023/03/28 09:52:50;;;;;;;2.77;2.13;;;20.40;99.90;;;;;;5094699;28;20219;-68
2023/03/28 09:55:37;;;;;;;8.67;1.83;;;20.30;99.90;;;;;;5095314;28;20174;-70
2023/03/28 09:58:10;;;;;;;4.77;2.27;;;20.30;99.90;;;;;;5094739;28;20182;-69
2023/03/28 10:00:52;;;;;;;3.40;1.80;;;20.30;99.90;;;;;;5094904;28;20188;-69
2023/03/28 10:03:27;;;;;;;9.00;2.17;;;20.30;99.90;;;;;;5093382;28;20183;-68
2023/03/28 10:05:57;;;;;;;6.00;2.00;;;20.30;99.90;;;;;;5093653;28;20547;-69
2023/03/28 10:08:38;;;;;;;4.73;1.90;;;20.30;99.90;;;;;;5095434;28;20669;-70
2023/03/28 10:11:16;;;;;;;3.83;2.40;;;20.20;99.90;;;;;;5113480;27;20242;-69
2023/03/28 10:13:47;;;;;;;3.77;2.20;;;20.20;99.90;;;;;;5107920;28;20182;-70
2023/03/28 10:16:27;;;;;;;2.97;2.03;;;20.20;99.90;;;;;;5092034;28;20209;-70
2023/03/28 10:18:55;;;;;;;3.23;1.93;;;20.10;99.90;;;;;;5099129;28;20181;-70
2023/03/28 10:21:27;;;;;;;5.43;2.40;;;20.10;99.90;;;;;;5101027;28;20214;-69
2023/03/28 10:24:14;;;;;;;5.13;2.60;;;20.10;99.90;;;;;;5094320;28;20241;-69
2023/03/28 10:26:42;;;;;;;4.87;2.73;;;20.10;99.90;;;;;;5105758;28;20190;-70
2023/03/28 10:29:13;;;;;;;7.60;2.40;;;20.10;99.90;;;;;;5112557;28;20239;-69
2023/03/28 10:31:48;;;;;;;6.03;3.17;;;20.20;99.90;;;;;;5113319;28;20742;-70
2023/03/28 10:34:27;;;;;;;7.10;2.70;;;20.20;99.90;;;;;;5097302;28;20191;-69
2023/03/28 10:36:54;;;;;;;5.60;3.00;;;20.20;99.90;;;;;;5112822;28;20194;-69
2023/03/28 10:39:24;;;;;;;4.07;2.63;;;20.30;99.90;;;;;;5097496;28;20546;-69
2023/03/28 10:41:59;;;;;;;5.07;2.30;;;20.40;99.90;;;;;;5112869;28;20186;-69
2023/03/28 10:44:35;;;;;;;3.47;1.80;;;20.30;99.90;;;;;;5104219;28;20184;-68
2023/03/28 10:47:05;;;;;;;5.70;1.80;;;20.30;99.90;;;;;;5109453;28;20179;-70
2023/03/28 10:49:46;;;;;;;2.67;1.80;;;20.30;99.90;;;;;;5100732;28;20199;-69
2023/03/28 10:52:38;;;;;;;4.70;2.00;;;20.20;99.90;;;;;;5094658;28;20277;-69
2023/03/28 10:55:27;;;;;;;7.63;1.90;;;20.20;99.90;;;;;;5111653;28;20189;-70
2023/03/28 10:58:13;;;;;;;3.90;1.90;;;20.20;99.90;;;;;;5112598;28;20181;-70
2023/03/28 11:00:59;;;;;;;5.73;2.00;;;20.20;99.90;;;;;;5095790;28;20182;-69
2023/03/28 11:03:58;;;;;;;4.53;2.10;;;20.20;99.90;;;;;;5112007;28;20180;-68
2023/03/28 11:06:38;;;;;;;4.23;1.83;;;20.10;99.90;;;;;;5078428;28;20187;-70
2023/03/28 11:09:33;;;;;;;4.50;2.00;;;20.20;99.90;;;;;;5093139;28;20178;-70
2023/03/28 11:12:30;;;;;;;7.87;2.50;;;20.20;99.90;;;;;;5093585;28;20722;-70
2023/03/28 11:15:10;;;;;;;4.73;2.10;;;20.10;99.90;;;;;;5095947;28;20270;-69
2023/03/28 11:17:37;;;;;;;10.83;3.00;;;20.10;99.90;;;;;;5113118;28;20183;-70
2023/03/28 11:20:35;;;;;;;5.70;3.00;;;20.10;99.90;;;;;;5112238;28;20231;-70
2023/03/28 11:23:13;;;;;;;6.83;2.50;;;20.20;99.90;;;;;;5097739;28;20188;-70
2023/03/28 11:26:00;;;;;;;6.67;2.47;;;20.20;99.90;;;;;;5108655;28;20649;-69
2023/03/28 11:28:50;;;;;;;4.83;2.63;;;20.30;99.90;;;;;;5113083;28;20281;-70
2023/03/28 11:31:28;;;;;;;5.43;2.40;;;20.40;99.90;;;;;;5109730;28;20238;-70
2023/03/28 11:34:05;;;;;;;7.23;2.50;;;20.40;99.90;;;;;;5106324;28;20641;-70
2023/03/28 11:36:38;;;;;;;7.03;2.13;;;20.40;99.90;;;;;;5112801;28;20184;-69
2023/03/28 11:39:21;;;;;;;4.07;2.10;;;20.40;99.90;;;;;;5110077;28;20220;-70
2023/03/28 11:41:51;;;;;;;5.00;1.73;;;20.40;99.90;;;;;;5112406;28;20285;-70
2023/03/28 11:44:31;;;;;;;3.60;1.60;;;20.30;99.90;;;;;;5112027;28;20204;-70
2023/03/28 11:47:23;;;;;;;5.70;1.60;;;20.40;99.90;;;;;;5098149;28;20258;-69
2023/03/28 11:50:27;;;;;;;5.60;2.40;;;20.40;99.90;;;;;;5105519;28;20183;-70
2023/03/28 11:53:12;;;;;;;4.33;1.40;;;20.30;99.90;;;;;;5102618;28;20280;-70
2023/03/28 11:55:50;;;;;;;3.90;2.07;;;20.30;99.90;;;;;;5092520;28;20186;-67
2023/03/28 11:58:26;;;;;;;2.47;1.60;;;20.30;99.90;;;;;;5092422;28;20190;-70
2023/03/28 12:01:16;;;;;;;3.10;1.60;;;20.30;99.90;;;;;;5092029;28;20174;-70
2023/03/28 12:04:26;;;;;;;4.40;1.77;;;20.30;99.90;;;;;;5099481;28;20273;-70
2023/03/28 12:07:17;;;;;;;5.63;2.20;;;20.20;99.90;;;;;;5083781;28;20194;-70
2023/03/28 12:09:57;;;;;;;2.83;1.60;;;20.20;99.90;;;;;;5106719;28;20544;-70
2023/03/28 12:12:51;;;;;;;3.93;2.17;;;20.20;99.90;;;;;;5103319;28;20692;-69
2023/03/28 12:15:28;;;;;;;6.67;1.30;;;20.20;99.90;;;;;;5104155;28;20190;-70
2023/03/28 12:18:03;;;;;;;5.53;1.30;;;20.10;99.90;;;;;;5108509;28;20292;-70
2023/03/28 12:20:51;;;;;;;4.17;1.90;;;20.10;99.90;;;;;;5108743;28;20276;-70
2023/03/28 12:23:39;;;;;;;3.20;1.60;;;20.20;99.90;;;;;;5096479;28;20179;-70
2023/03/28 12:26:27;;;;;;;7.40;1.63;;;20.20;99.90;;;;;;5103241;28;20274;-70
2023/03/28 12:29:00;;;;;;;2.23;1.00;;;20.20;99.90;;;;;;5097137;28;20184;-70
2023/03/28 12:31:30;;;;;;;3.23;1.03;;;20.20;99.90;;;;;;5091059;28;20206;-70
2023/03/28 12:34:05;;;;;;;2.67;1.27;;;20.30;99.90;;;;;;5108787;28;20235;-70
2023/03/28 12:36:52;;;;;;;2.10;1.70;;;20.30;99.90;;;;;;5112094;28;20183;-70
2023/03/28 12:39:41;;;;;;;1.93;1.30;;;20.30;99.90;;;;;;5094068;28;20241;-70
2023/03/28 12:42:18;;;;;;;4.00;1.27;;;20.40;99.90;;;;;;5100262;28;20228;-70
2023/03/28 12:44:54;;;;;;;2.07;1.13;;;20.40;99.90;;;;;;5101772;28;20263;-69
2023/03/28 12:47:26;;;;;;;3.30;1.33;;;20.40;99.90;;;;;;5104292;28;20536;-70
2023/03/28 12:50:11;;;;;;;6.07;1.13;;;20.40;99.90;;;;;;5106216;28;20185;-70
2023/03/28 12:52:42;;;;;;;3.40;1.30;;;20.40;99.90;;;;;;5111754;28;20218;-70
2023/03/28 12:55:30;;;;;;;2.50;1.33;;;20.40;99.90;;;;;;5108873;28;20585;-70
2023/03/28 12:58:21;;;;;;;5.77;1.60;;;20.30;99.90;;;;;;5103960;28;20275;-70
2023/03/28 13:01:12;;;;;;;3.90;1.53;;;20.30;99.90;;;;;;5094132;28;20675;-70
2023/03/28 13:04:01;;;;;;;4.33;1.20;;;20.30;99.90;;;;;;5100714;28;20214;-70
2023/03/28 13:06:41;;;;;;;5.53;1.40;;;20.30;99.90;;;;;;5104473;28;20177;-70
2023/03/28 13:09:28;;;;;;;2.10;1.23;;;20.30;99.90;;;;;;5108172;28;20188;-70
2023/03/28 13:12:04;;;;;;;6.37;2.00;;;20.20;99.90;;;;;;5106541;28;20237;-69
2023/03/28 13:14:36;;;;;;;3.00;1.57;;;20.30;99.90;;;;;;5111195;28;20187;-69
2023/03/28 13:17:13;;;;;;;4.77;1.47;;;20.40;99.90;;;;;;5101552;28;20259;-70
2023/03/28 13:19:45;;;;;;;6.83;1.53;;;20.50;99.90;;;;;;5110513;28;20195;-70
2023/03/28 13:22:35;;;;;;;3.77;1.50;;;20.40;99.90;;;;;;5112745;28;20175;-70
2023/03/28 13:25:34;;;;;;;4.30;1.20;;;20.30;99.90;;;;;;5112286;28;20306;-70
2023/03/28 13:28:27;;;;;;;3.10;1.30;;;20.30;99.90;;;;;;5115716;28;20180;-70